VOZ505 YMLT-YMML
Flight info
| Callsign | VOZ505 |
|---|---|
| Flight time | 0h 46m |
| Altitude | 34000 |
| Route | LT H215 RAZZI W687 ML |
| Aircraft | B738/M-SDE2E3FGHIRWXY/LB1 |
Departure
| Time | 2026-04-22 06:45 |
|---|---|
| Airport | Launceston Airport (YMLT) |
Arrival
| Time | 2026-04-22 07:32 |
|---|---|
| Airport | Melbourne Airport (YMML) |
| Time | Latitude | Longitude | Altitude | Speed | Heading |
|---|---|---|---|---|---|
| 2026-04-22 06:28 | -41.54297 | 147.20681 | 563 ft | 0 kts | 348° |
| 2026-04-22 06:38 | -41.54281 | 147.20687 | 564 ft | 2 kts | 224° |
| 2026-04-22 06:38 | -41.54293 | 147.20698 | 560 ft | 4 kts | 142° |
| 2026-04-22 06:38 | -41.54309 | 147.20726 | 561 ft | 4 kts | 123° |
| 2026-04-22 06:38 | -41.54326 | 147.20753 | 564 ft | 4 kts | 138° |
| 2026-04-22 06:39 | -41.54325 | 147.20752 | 565 ft | 0 kts | 149° |
| 2026-04-22 06:42 | -41.54327 | 147.20753 | 564 ft | 1 kts | 149° |
| 2026-04-22 06:42 | -41.54378 | 147.20794 | 561 ft | 17 kts | 148° |
| 2026-04-22 06:43 | -41.54519 | 147.20916 | 558 ft | 29 kts | 146° |
| 2026-04-22 06:43 | -41.54689 | 147.21063 | 556 ft | 28 kts | 147° |
| 2026-04-22 06:43 | -41.54851 | 147.21199 | 557 ft | 27 kts | 147° |
| 2026-04-22 06:43 | -41.55006 | 147.21332 | 558 ft | 29 kts | 147° |
| 2026-04-22 06:44 | -41.55198 | 147.21498 | 549 ft | 31 kts | 143° |
| 2026-04-22 06:44 | -41.55203 | 147.21666 | 555 ft | 7 kts | 56° |
| 2026-04-22 06:44 | -41.55180 | 147.21670 | 553 ft | 3 kts | 329° |
| 2026-04-22 06:44 | -41.55114 | 147.21615 | 554 ft | 39 kts | 328° |
| 2026-04-22 06:45 | -41.54653 | 147.21222 | 554 ft | 115 kts | 327° |
| 2026-04-22 06:45 | -41.53822 | 147.20525 | 917 ft | 147 kts | 328° |
| 2026-04-22 06:45 | -41.52877 | 147.19847 | 1673 ft | 165 kts | 341° |
| 2026-04-22 06:45 | -41.51816 | 147.19362 | 2650 ft | 162 kts | 341° |
| 2026-04-22 06:46 | -41.50684 | 147.18746 | 3157 ft | 191 kts | 336° |
| 2026-04-22 06:46 | -41.49363 | 147.17999 | 3426 ft | 217 kts | 335° |
| 2026-04-22 06:46 | -41.47899 | 147.17177 | 3750 ft | 242 kts | 336° |
| 2026-04-22 06:46 | -41.46305 | 147.16292 | 4460 ft | 251 kts | 334° |
| 2026-04-22 06:47 | -41.44689 | 147.15403 | 5439 ft | 254 kts | 333° |
| 2026-04-22 06:47 | -41.43036 | 147.14499 | 6336 ft | 259 kts | 334° |
| 2026-04-22 06:47 | -41.41354 | 147.13584 | 7203 ft | 263 kts | 335° |
| 2026-04-22 06:47 | -41.39643 | 147.12657 | 8062 ft | 268 kts | 336° |
| 2026-04-22 06:48 | -41.37905 | 147.11719 | 8971 ft | 271 kts | 336° |
| 2026-04-22 06:48 | -41.36142 | 147.10770 | 9794 ft | 278 kts | 337° |
| 2026-04-22 06:48 | -41.34329 | 147.09795 | 10508 ft | 287 kts | 337° |
| 2026-04-22 06:48 | -41.32391 | 147.08753 | 10723 ft | 314 kts | 337° |
| 2026-04-22 06:49 | -41.30306 | 147.07633 | 11230 ft | 326 kts | 336° |
| 2026-04-22 06:49 | -41.28196 | 147.06505 | 12066 ft | 330 kts | 337° |
| 2026-04-22 06:49 | -41.26054 | 147.05359 | 12945 ft | 331 kts | 337° |
| 2026-04-22 06:49 | -41.23931 | 147.04224 | 13750 ft | 335 kts | 337° |
| 2026-04-22 06:50 | -41.21761 | 147.03065 | 14532 ft | 338 kts | 337° |
| 2026-04-22 06:50 | -41.19566 | 147.01894 | 15248 ft | 342 kts | 337° |
| 2026-04-22 06:50 | -41.17351 | 147.00713 | 15951 ft | 345 kts | 337° |
| 2026-04-22 06:50 | -41.15106 | 146.99517 | 16652 ft | 349 kts | 337° |
| 2026-04-22 06:51 | -41.12840 | 146.98310 | 17333 ft | 353 kts | 337° |
| 2026-04-22 06:51 | -41.10542 | 146.97088 | 18005 ft | 358 kts | 337° |
| 2026-04-22 06:51 | -41.08217 | 146.95852 | 18690 ft | 361 kts | 337° |
| 2026-04-22 06:51 | -41.05873 | 146.94607 | 19300 ft | 364 kts | 337° |
| 2026-04-22 06:52 | -41.03509 | 146.93352 | 19922 ft | 367 kts | 337° |
| 2026-04-22 06:52 | -41.01123 | 146.92086 | 20513 ft | 371 kts | 337° |
| 2026-04-22 06:52 | -40.98719 | 146.90812 | 21116 ft | 373 kts | 337° |
| 2026-04-22 06:52 | -40.96322 | 146.89542 | 21710 ft | 376 kts | 338° |
| 2026-04-22 06:53 | -40.93874 | 146.88248 | 22293 ft | 379 kts | 338° |
| 2026-04-22 06:53 | -40.91411 | 146.86945 | 22863 ft | 382 kts | 338° |
| 2026-04-22 06:53 | -40.88929 | 146.85634 | 23404 ft | 386 kts | 338° |
| 2026-04-22 06:53 | -40.86424 | 146.84312 | 23893 ft | 390 kts | 338° |
| 2026-04-22 06:54 | -40.83889 | 146.82975 | 24346 ft | 393 kts | 338° |
| 2026-04-22 06:54 | -40.81344 | 146.81634 | 24838 ft | 394 kts | 338° |
| 2026-04-22 06:54 | -40.78821 | 146.80305 | 25306 ft | 396 kts | 337° |
| 2026-04-22 06:54 | -40.76248 | 146.78951 | 25729 ft | 399 kts | 337° |
| 2026-04-22 06:55 | -40.73654 | 146.77587 | 26145 ft | 402 kts | 337° |
| 2026-04-22 06:55 | -40.71040 | 146.76214 | 26566 ft | 405 kts | 337° |
| 2026-04-22 06:55 | -40.68416 | 146.74837 | 26976 ft | 407 kts | 337° |
| 2026-04-22 06:55 | -40.65767 | 146.73448 | 27370 ft | 410 kts | 337° |
| 2026-04-22 06:56 | -40.63098 | 146.72049 | 27702 ft | 414 kts | 337° |
| 2026-04-22 06:56 | -40.60409 | 146.70641 | 28084 ft | 417 kts | 337° |
| 2026-04-22 06:56 | -40.57710 | 146.69230 | 28496 ft | 419 kts | 336° |
| 2026-04-22 06:56 | -40.54992 | 146.67810 | 28909 ft | 420 kts | 336° |
| 2026-04-22 06:57 | -40.52312 | 146.66410 | 29406 ft | 419 kts | 336° |
| 2026-04-22 06:57 | -40.49607 | 146.65000 | 29982 ft | 417 kts | 336° |
| 2026-04-22 06:57 | -40.46923 | 146.63602 | 30514 ft | 415 kts | 336° |
| 2026-04-22 06:57 | -40.44241 | 146.62206 | 30929 ft | 414 kts | 336° |
| 2026-04-22 06:58 | -40.41562 | 146.60812 | 31326 ft | 413 kts | 336° |
| 2026-04-22 06:58 | -40.38888 | 146.59422 | 31713 ft | 413 kts | 336° |
| 2026-04-22 06:58 | -40.36217 | 146.58034 | 32174 ft | 411 kts | 336° |
| 2026-04-22 06:58 | -40.33567 | 146.56659 | 32652 ft | 408 kts | 336° |
| 2026-04-22 06:59 | -40.30924 | 146.55289 | 33070 ft | 407 kts | 336° |
| 2026-04-22 06:59 | -40.28293 | 146.53925 | 33447 ft | 406 kts | 336° |
| 2026-04-22 06:59 | -40.25669 | 146.52567 | 33836 ft | 405 kts | 336° |
| 2026-04-22 06:59 | -40.23049 | 146.51212 | 34250 ft | 404 kts | 336° |
| 2026-04-22 07:00 | -40.20421 | 146.49853 | 34310 ft | 409 kts | 336° |
| 2026-04-22 07:00 | -40.15134 | 146.47122 | 34320 ft | 413 kts | 336° |
| 2026-04-22 07:01 | -40.09719 | 146.44330 | 34335 ft | 424 kts | 336° |
| 2026-04-22 07:01 | -40.04153 | 146.41466 | 34333 ft | 435 kts | 336° |
| 2026-04-22 07:02 | -39.98458 | 146.38541 | 34326 ft | 442 kts | 336° |
| 2026-04-22 07:02 | -39.92735 | 146.35589 | 34308 ft | 442 kts | 336° |
| 2026-04-22 07:03 | -39.87003 | 146.32632 | 34319 ft | 443 kts | 336° |
| 2026-04-22 07:03 | -39.81304 | 146.29698 | 34317 ft | 443 kts | 336° |
| 2026-04-22 07:04 | -39.75566 | 146.26750 | 34322 ft | 443 kts | 336° |
| 2026-04-22 07:04 | -39.69840 | 146.23815 | 34313 ft | 442 kts | 336° |
| 2026-04-22 07:05 | -39.64112 | 146.20902 | 34311 ft | 442 kts | 336° |
| 2026-04-22 07:05 | -39.58381 | 146.17996 | 34310 ft | 442 kts | 336° |
| 2026-04-22 07:06 | -39.52659 | 146.15097 | 34310 ft | 441 kts | 336° |
| 2026-04-22 07:06 | -39.46938 | 146.12202 | 34309 ft | 441 kts | 336° |
| 2026-04-22 07:07 | -39.41217 | 146.09313 | 34304 ft | 441 kts | 337° |
| 2026-04-22 07:07 | -39.35494 | 146.06422 | 34303 ft | 441 kts | 336° |
| 2026-04-22 07:08 | -39.29818 | 146.03552 | 34314 ft | 439 kts | 337° |
| 2026-04-22 07:08 | -39.24130 | 146.00683 | 34311 ft | 439 kts | 337° |
| 2026-04-22 07:09 | -39.18426 | 145.97810 | 34302 ft | 441 kts | 337° |
| 2026-04-22 07:09 | -39.12707 | 145.94934 | 34299 ft | 441 kts | 337° |
| 2026-04-22 07:10 | -39.06975 | 145.92058 | 34299 ft | 442 kts | 337° |
| 2026-04-22 07:10 | -39.01247 | 145.89188 | 34294 ft | 442 kts | 337° |
| 2026-04-22 07:11 | -38.95507 | 145.86317 | 34296 ft | 442 kts | 337° |
| 2026-04-22 07:11 | -38.89771 | 145.83454 | 34296 ft | 442 kts | 337° |
| 2026-04-22 07:12 | -38.85006 | 145.81078 | 34299 ft | 442 kts | 337° |
| 2026-04-22 07:12 | -38.79266 | 145.78221 | 34291 ft | 442 kts | 337° |
| 2026-04-22 07:13 | -38.73524 | 145.75369 | 34297 ft | 442 kts | 337° |
| 2026-04-22 07:13 | -38.67810 | 145.72535 | 34273 ft | 429 kts | 337° |
| 2026-04-22 07:13 | -38.65136 | 145.71215 | 34268 ft | 405 kts | 337° |
| 2026-04-22 07:14 | -38.62577 | 145.69951 | 34265 ft | 384 kts | 336° |
| 2026-04-22 07:14 | -38.60137 | 145.68744 | 34145 ft | 367 kts | 336° |
| 2026-04-22 07:14 | -38.57802 | 145.67590 | 33983 ft | 353 kts | 336° |
| 2026-04-22 07:14 | -38.55502 | 145.66449 | 33058 ft | 360 kts | 336° |
| 2026-04-22 07:15 | -38.53152 | 145.65285 | 32202 ft | 365 kts | 336° |
| 2026-04-22 07:15 | -38.50777 | 145.64112 | 31387 ft | 365 kts | 336° |
| 2026-04-22 07:15 | -38.48409 | 145.62946 | 30535 ft | 364 kts | 336° |
| 2026-04-22 07:15 | -38.46073 | 145.61705 | 29575 ft | 362 kts | 332° |
| 2026-04-22 07:16 | -38.43871 | 145.60250 | 28634 ft | 359 kts | 330° |
| 2026-04-22 07:16 | -38.41681 | 145.58711 | 27708 ft | 357 kts | 329° |
| 2026-04-22 07:16 | -38.39519 | 145.57175 | 26809 ft | 354 kts | 330° |
| 2026-04-22 07:16 | -38.37372 | 145.55659 | 25938 ft | 351 kts | 330° |
| 2026-04-22 07:17 | -38.35233 | 145.54162 | 25099 ft | 349 kts | 331° |
| 2026-04-22 07:17 | -38.33138 | 145.52706 | 24294 ft | 346 kts | 331° |
| 2026-04-22 07:17 | -38.31030 | 145.51249 | 23430 ft | 343 kts | 332° |
| 2026-04-22 07:17 | -38.28943 | 145.49813 | 22489 ft | 340 kts | 331° |
| 2026-04-22 07:18 | -38.26863 | 145.48385 | 21573 ft | 337 kts | 331° |
| 2026-04-22 07:18 | -38.24809 | 145.46976 | 20699 ft | 335 kts | 331° |
| 2026-04-22 07:18 | -38.22763 | 145.45574 | 19846 ft | 332 kts | 331° |
| 2026-04-22 07:18 | -38.20736 | 145.44186 | 19005 ft | 330 kts | 330° |
| 2026-04-22 07:19 | -38.18716 | 145.42804 | 18148 ft | 327 kts | 330° |
| 2026-04-22 07:19 | -38.16740 | 145.41452 | 17247 ft | 325 kts | 331° |
| 2026-04-22 07:19 | -38.14735 | 145.40081 | 16360 ft | 322 kts | 331° |
| 2026-04-22 07:19 | -38.12791 | 145.38753 | 15503 ft | 319 kts | 331° |
| 2026-04-22 07:20 | -38.10841 | 145.37421 | 14668 ft | 317 kts | 332° |
| 2026-04-22 07:20 | -38.08909 | 145.36103 | 13814 ft | 314 kts | 332° |
| 2026-04-22 07:20 | -38.06995 | 145.34797 | 12910 ft | 311 kts | 332° |
| 2026-04-22 07:20 | -38.05092 | 145.33500 | 12031 ft | 309 kts | 333° |
| 2026-04-22 07:21 | -38.03201 | 145.32213 | 11177 ft | 308 kts | 333° |
| 2026-04-22 07:21 | -38.01324 | 145.30932 | 10529 ft | 301 kts | 333° |
| 2026-04-22 07:21 | -37.99569 | 145.29708 | 10442 ft | 276 kts | 332° |
| 2026-04-22 07:21 | -37.97948 | 145.28570 | 10291 ft | 256 kts | 332° |
| 2026-04-22 07:22 | -37.96440 | 145.27510 | 10167 ft | 239 kts | 333° |
| 2026-04-22 07:22 | -37.95052 | 145.26537 | 10000 ft | 224 kts | 333° |
| 2026-04-22 07:22 | -37.93679 | 145.25574 | 9385 ft | 231 kts | 333° |
| 2026-04-22 07:22 | -37.92233 | 145.24568 | 8707 ft | 243 kts | 332° |
| 2026-04-22 07:23 | -37.90720 | 145.23512 | 8076 ft | 253 kts | 331° |
| 2026-04-22 07:23 | -37.89150 | 145.22415 | 7448 ft | 262 kts | 331° |
| 2026-04-22 07:23 | -37.87530 | 145.21284 | 6847 ft | 269 kts | 330° |
| 2026-04-22 07:23 | -37.85876 | 145.20119 | 6257 ft | 273 kts | 327° |
| 2026-04-22 07:24 | -37.84564 | 145.18457 | 5878 ft | 268 kts | 296° |
| 2026-04-22 07:24 | -37.83923 | 145.16276 | 5630 ft | 264 kts | 282° |
| 2026-04-22 07:24 | -37.83533 | 145.14022 | 5440 ft | 260 kts | 279° |
| 2026-04-22 07:24 | -37.83177 | 145.11810 | 5313 ft | 253 kts | 279° |
| 2026-04-22 07:25 | -37.82831 | 145.09638 | 5084 ft | 250 kts | 279° |
| 2026-04-22 07:25 | -37.82476 | 145.07500 | 4843 ft | 247 kts | 280° |
| 2026-04-22 07:25 | -37.82119 | 145.05407 | 4595 ft | 245 kts | 280° |
| 2026-04-22 07:25 | -37.81756 | 145.03306 | 4348 ft | 244 kts | 281° |
| 2026-04-22 07:26 | -37.81423 | 145.01227 | 4209 ft | 236 kts | 274° |
| 2026-04-22 07:26 | -37.81609 | 144.99219 | 4120 ft | 226 kts | 255° |
| 2026-04-22 07:26 | -37.81971 | 144.97314 | 4008 ft | 219 kts | 257° |
| 2026-04-22 07:26 | -37.82300 | 144.95478 | 3944 ft | 207 kts | 257° |
| 2026-04-22 07:27 | -37.82600 | 144.93751 | 3828 ft | 195 kts | 259° |
| 2026-04-22 07:27 | -37.82815 | 144.92078 | 3611 ft | 190 kts | 261° |
| 2026-04-22 07:27 | -37.83009 | 144.90474 | 3403 ft | 184 kts | 262° |
| 2026-04-22 07:27 | -37.83183 | 144.88890 | 3186 ft | 179 kts | 269° |
| 2026-04-22 07:28 | -37.81672 | 144.86830 | 2945 ft | 181 kts | 342° |
| 2026-04-22 07:28 | -37.80453 | 144.86413 | 2699 ft | 180 kts | 343° |
| 2026-04-22 07:28 | -37.79267 | 144.86100 | 2463 ft | 170 kts | 348° |
| 2026-04-22 07:29 | -37.78150 | 144.85884 | 2258 ft | 157 kts | 351° |
| 2026-04-22 07:29 | -37.77099 | 144.85691 | 2064 ft | 148 kts | 350° |
| 2026-04-22 07:29 | -37.76082 | 144.85500 | 1866 ft | 149 kts | 350° |
| 2026-04-22 07:29 | -37.75062 | 144.85312 | 1634 ft | 147 kts | 352° |
| 2026-04-22 07:30 | -37.74067 | 144.85127 | 1472 ft | 143 kts | 352° |
| 2026-04-22 07:30 | -37.73086 | 144.84941 | 1284 ft | 146 kts | 353° |
| 2026-04-22 07:30 | -37.72080 | 144.84755 | 1076 ft | 147 kts | 353° |
| 2026-04-22 07:30 | -37.71085 | 144.84553 | 879 ft | 142 kts | 353° |
| 2026-04-22 07:31 | -37.70119 | 144.84387 | 690 ft | 138 kts | 355° |
| 2026-04-22 07:31 | -37.69164 | 144.84203 | 535 ft | 138 kts | 353° |
| 2026-04-22 07:31 | -37.68229 | 144.84034 | 362 ft | 134 kts | 354° |
| 2026-04-22 07:31 | -37.67401 | 144.83887 | 369 ft | 102 kts | 353° |
| 2026-04-22 07:32 | -37.66949 | 144.83858 | 387 ft | 35 kts | 21° |
| 2026-04-22 07:32 | -37.66818 | 144.83924 | 391 ft | 0 kts | 22° |
| 2026-04-22 07:32 | -37.66804 | 144.83935 | 391 ft | 5 kts | 42° |
| 2026-04-22 07:33 | -37.66813 | 144.83979 | 390 ft | 6 kts | 135° |
| 2026-04-22 07:33 | -37.66864 | 144.83997 | 388 ft | 11 kts | 172° |
| 2026-04-22 07:33 | -37.66977 | 144.84018 | 385 ft | 20 kts | 171° |
| 2026-04-22 07:33 | -37.67123 | 144.84046 | 380 ft | 22 kts | 171° |
| 2026-04-22 07:34 | -37.67220 | 144.84124 | 378 ft | 15 kts | 93° |
| 2026-04-22 07:34 | -37.67212 | 144.84255 | 380 ft | 15 kts | 85° |
| 2026-04-22 07:34 | -37.67201 | 144.84378 | 382 ft | 14 kts | 83° |
| 2026-04-22 07:34 | -37.67209 | 144.84498 | 384 ft | 13 kts | 108° |
| 2026-04-22 07:35 | -37.67202 | 144.84597 | 385 ft | 3 kts | 81° |
| 2026-04-22 07:35 | -37.67201 | 144.84608 | 385 ft | 1 kts | 81° |
| 2026-04-22 07:35 | -37.67200 | 144.84619 | 386 ft | 1 kts | 81° |
| 2026-04-22 07:35 | -37.67197 | 144.84640 | 386 ft | 6 kts | 81° |
| 2026-04-22 07:36 | -37.67190 | 144.84702 | 387 ft | 7 kts | 86° |
| 2026-04-22 07:36 | -37.67214 | 144.84752 | 387 ft | 7 kts | 142° |
| 2026-04-22 07:36 | -37.67255 | 144.84766 | 386 ft | 5 kts | 171° |
| 2026-04-22 07:36 | -37.67260 | 144.84767 | 386 ft | 0 kts | 171° |
| 2026-04-22 07:37 | -37.67261 | 144.84767 | 386 ft | 0 kts | 171° |